createdAt,value
2023-04-25T00:00:39.896Z,89.62
2023-04-25T00:03:06.813Z,88.75
2023-04-25T00:05:33.389Z,87.90
2023-04-25T00:08:00.067Z,87.60
2023-04-25T00:10:26.620Z,86.77
2023-04-25T00:12:53.130Z,88.49
2023-04-25T00:15:19.648Z,87.25
2023-04-25T00:17:49.717Z,87.87
2023-04-25T00:20:19.256Z,86.38
2023-04-25T00:22:48.404Z,84.58
2023-04-25T00:25:15.060Z,85.60
2023-04-25T00:27:42.761Z,85.79
2023-04-25T00:30:09.751Z,86.29
2023-04-25T00:32:36.282Z,86.86
2023-04-25T00:35:03.045Z,86.45
2023-04-25T00:37:29.553Z,85.77
2023-04-25T00:39:56.938Z,86.02
2023-04-25T00:42:23.445Z,86.08
2023-04-25T00:44:50.950Z,86.04
2023-04-25T00:47:20.807Z,86.51
2023-04-25T00:49:47.434Z,85.38
2023-04-25T00:52:13.993Z,86.07
2023-04-25T00:54:40.887Z,86.26
2023-04-25T00:57:07.510Z,85.91
2023-04-25T00:59:34.515Z,86.07
2023-04-25T01:02:01.569Z,85.23
2023-04-25T01:04:28.879Z,85.42
2023-04-25T01:06:55.450Z,85.36
2023-04-25T01:09:23.037Z,85.53
2023-04-25T01:11:52.849Z,85.98
2023-04-25T01:14:21.480Z,86.56
2023-04-25T01:16:48.002Z,85.50
2023-04-25T01:19:17.837Z,86.19
2023-04-25T01:21:44.726Z,86.18
2023-04-25T01:24:11.387Z,86.08
2023-04-25T01:26:38.921Z,86.75
2023-04-25T01:29:06.004Z,86.67
2023-04-25T01:31:33.438Z,86.21
2023-04-25T01:33:59.895Z,85.93
2023-04-25T01:36:26.380Z,86.34
2023-04-25T01:38:56.353Z,86.48
2023-04-25T01:41:26.011Z,87.10
2023-04-25T01:43:56.420Z,86.95
2023-04-25T01:46:26.082Z,86.15
2023-04-25T01:48:55.645Z,86.63
2023-04-25T01:51:26.655Z,86.59
2023-04-25T01:53:58.371Z,87.18
2023-04-25T01:56:25.976Z,87.32
2023-04-25T01:58:55.684Z,87.24
2023-04-25T02:01:23.971Z,86.88
2023-04-25T02:03:50.645Z,88.77
2023-04-25T02:06:17.305Z,88.47
2023-04-25T02:08:43.750Z,88.82
2023-04-25T02:11:10.216Z,88.76
2023-04-25T02:13:36.704Z,87.84
2023-04-25T02:16:03.323Z,87.99
2023-04-25T02:18:29.917Z,89.96
2023-04-25T02:20:56.466Z,90.86
2023-04-25T02:23:28.698Z,89.17
2023-04-25T02:25:58.404Z,89.84
2023-04-25T02:28:27.817Z,90.14
2023-04-25T02:30:58.495Z,90.03
2023-04-25T02:33:27.827Z,89.03
2023-04-25T02:35:54.473Z,89.10
2023-04-25T02:38:20.950Z,89.26
2023-04-25T02:40:47.386Z,88.58
2023-04-25T02:43:13.872Z,87.54
2023-04-25T02:45:40.564Z,88.38
2023-04-25T02:48:07.281Z,88.81
2023-04-25T02:50:33.802Z,88.47
2023-04-25T02:53:00.432Z,88.42
2023-04-25T02:55:29.934Z,85.99
2023-04-25T02:57:59.674Z,85.86
2023-04-25T03:00:29.333Z,85.98
2023-04-25T03:02:57.200Z,85.38
2023-04-25T03:05:23.748Z,86.58
2023-04-25T03:07:50.222Z,86.82
2023-04-25T03:10:16.664Z,87.47
2023-04-25T03:12:43.132Z,86.80
2023-04-25T03:15:09.961Z,86.16
2023-04-25T03:17:36.576Z,85.17
2023-04-25T03:20:05.014Z,84.35
2023-04-25T03:22:31.598Z,84.34
2023-04-25T03:25:00.949Z,83.32
2023-04-25T03:27:30.586Z,82.14
2023-04-25T03:29:59.380Z,83.33
2023-04-25T03:32:25.955Z,83.98
2023-04-25T03:34:52.736Z,85.30
2023-04-25T03:37:19.192Z,85.27
2023-04-25T03:39:45.698Z,84.19
2023-04-25T03:42:12.167Z,84.73
2023-04-25T03:44:38.671Z,85.00
2023-04-25T03:47:05.117Z,85.87
2023-04-25T03:49:33.778Z,86.22
2023-04-25T03:52:03.603Z,88.84
2023-04-25T03:54:30.740Z,88.50
2023-04-25T03:56:57.245Z,88.13
2023-04-25T03:59:23.800Z,88.66
2023-04-25T04:01:50.282Z,90.08
2023-04-25T04:04:17.058Z,88.33
2023-04-25T04:06:43.694Z,89.17
2023-04-25T04:09:12.010Z,89.75
2023-04-25T04:11:39.440Z,89.31
2023-04-25T04:14:07.209Z,89.92
2023-04-25T04:16:34.602Z,90.55
2023-04-25T04:19:04.354Z,90.21
2023-04-25T04:21:34.518Z,91.06
2023-04-25T04:24:04.800Z,90.85
2023-04-25T04:26:33.770Z,92.29
2023-04-25T04:29:04.317Z,93.46
2023-04-25T04:31:33.886Z,93.66
2023-04-25T04:34:03.369Z,94.37
2023-04-25T04:36:32.833Z,94.56
2023-04-25T04:38:59.236Z,93.06
2023-04-25T04:41:25.704Z,93.97
2023-04-25T04:43:54.241Z,94.02
2023-04-25T04:46:21.132Z,93.70
2023-04-25T04:48:47.685Z,93.57
2023-04-25T04:51:14.166Z,93.12
2023-04-25T04:53:40.751Z,92.79
2023-04-25T04:56:07.448Z,92.58
2023-04-25T04:58:34.094Z,93.68
2023-04-25T05:01:02.774Z,92.66
2023-04-25T05:03:32.039Z,92.35
2023-04-25T05:05:58.694Z,91.34
2023-04-25T05:08:25.177Z,90.81
2023-04-25T05:10:51.761Z,91.32
2023-04-25T05:13:18.222Z,91.69
2023-04-25T05:15:44.681Z,91.39
2023-04-25T05:18:11.298Z,91.31
2023-04-25T05:20:37.863Z,90.90
2023-04-25T05:23:05.067Z,91.20
2023-04-25T05:25:34.541Z,91.61
2023-04-25T05:28:03.849Z,91.16
2023-04-25T05:30:34.304Z,90.97
2023-04-25T05:33:03.893Z,91.37
2023-04-25T05:35:33.418Z,91.04
2023-04-25T05:38:02.465Z,90.73
2023-04-25T05:40:28.963Z,90.68
2023-04-25T05:42:55.483Z,91.75
2023-04-25T05:45:21.963Z,90.67
2023-04-25T05:47:48.496Z,90.16
2023-04-25T05:50:15.055Z,89.28
2023-04-25T05:52:41.525Z,89.70
2023-04-25T05:55:08.625Z,90.00
2023-04-25T05:57:35.321Z,88.93
2023-04-25T06:00:02.979Z,89.01
2023-04-25T06:02:32.112Z,88.08
2023-04-25T06:04:59.186Z,87.18
2023-04-25T06:07:26.282Z,87.04
2023-04-25T06:09:53.061Z,87.36
2023-04-25T06:12:19.869Z,87.99
2023-04-25T06:14:46.665Z,87.77
2023-04-25T06:17:15.907Z,88.20
2023-04-25T06:19:42.388Z,86.97
2023-04-25T06:22:09.009Z,85.74
2023-04-25T06:24:36.377Z,85.81
2023-04-25T06:27:06.113Z,86.49
2023-04-25T06:29:35.433Z,86.44
2023-04-25T06:32:03.141Z,84.87
2023-04-25T06:34:32.018Z,85.25
2023-04-25T06:36:58.489Z,83.15
2023-04-25T06:39:26.292Z,84.15
2023-04-25T06:41:52.788Z,83.62
2023-04-25T06:44:19.366Z,84.75
2023-04-25T06:46:48.442Z,84.24
2023-04-25T06:49:17.003Z,85.13
2023-04-25T06:51:46.588Z,85.72
2023-04-25T06:54:13.258Z,84.50
2023-04-25T06:56:39.885Z,85.83
2023-04-25T06:59:08.763Z,85.60
2023-04-25T07:01:36.313Z,84.94
2023-04-25T07:04:03.303Z,85.31
2023-04-25T07:06:32.030Z,84.01
2023-04-25T07:08:58.489Z,83.97
2023-04-25T07:11:25.021Z,84.95
2023-04-25T07:13:51.515Z,83.70
2023-04-25T07:16:18.226Z,83.18
2023-04-25T07:18:44.711Z,80.73
2023-04-25T07:21:11.258Z,81.57
2023-04-25T07:23:38.585Z,81.90
2023-04-25T07:26:05.232Z,79.43
2023-04-25T07:28:34.759Z,78.76
2023-04-25T07:31:05.171Z,80.27
2023-04-25T07:33:34.691Z,79.17
2023-04-25T07:36:04.372Z,76.13
2023-04-25T07:38:34.021Z,77.94
2023-04-25T07:41:03.799Z,75.14
2023-04-25T07:43:33.936Z,73.94
2023-04-25T07:46:03.800Z,70.84
2023-04-25T07:48:34.638Z,70.22
2023-04-25T07:51:06.382Z,72.79
2023-04-25T07:53:34.979Z,72.29
2023-04-25T07:56:03.166Z,74.64
2023-04-25T07:58:32.138Z,74.86
2023-04-25T08:00:58.975Z,77.33
2023-04-25T08:03:25.980Z,77.47
2023-04-25T08:05:53.019Z,76.81
2023-04-25T08:08:19.800Z,75.85
2023-04-25T08:10:46.359Z,72.11
2023-04-25T08:13:12.805Z,72.85
2023-04-25T08:15:39.319Z,70.86
2023-04-25T08:18:06.359Z,69.75
2023-04-25T08:20:32.908Z,71.36
2023-04-25T08:23:05.042Z,73.66
2023-04-25T08:25:32.752Z,67.20
2023-04-25T08:28:03.972Z,66.83
2023-04-25T08:30:33.440Z,68.62
2023-04-25T08:33:03.053Z,66.60
2023-04-25T08:35:32.335Z,62.46
2023-04-25T08:37:58.856Z,64.76
2023-04-25T08:40:30.692Z,63.77
2023-04-25T08:42:58.813Z,63.86
2023-04-25T08:45:28.870Z,63.47
2023-04-25T08:47:58.161Z,61.65
2023-04-25T08:50:25.929Z,60.71
2023-04-25T08:52:54.594Z,60.52
2023-04-25T08:55:22.138Z,62.35
2023-04-25T08:57:49.206Z,63.05
2023-04-25T09:00:15.923Z,64.33
2023-04-25T09:02:44.689Z,63.59
2023-04-25T09:05:14.759Z,62.50
2023-04-25T09:07:41.549Z,61.87
2023-04-25T09:10:08.420Z,64.02
2023-04-25T09:12:36.273Z,63.44
2023-04-25T09:15:11.172Z,60.97
2023-04-25T09:17:41.348Z,59.40
2023-04-25T09:20:10.351Z,54.95
2023-04-25T09:22:37.829Z,55.07
2023-04-25T09:25:15.633Z,53.98
2023-04-25T09:27:53.339Z,47.26
2023-04-25T09:30:20.024Z,44.73
2023-04-25T09:32:46.680Z,47.42
2023-04-25T09:35:25.871Z,46.26
2023-04-25T09:37:52.356Z,43.75
2023-04-25T09:40:19.395Z,46.16
2023-04-25T09:42:45.864Z,49.70
2023-04-25T09:45:16.091Z,49.93
2023-04-25T09:47:44.971Z,51.27
2023-04-25T09:50:16.913Z,44.09
2023-04-25T09:52:44.081Z,42.14
2023-04-25T09:55:10.757Z,40.98
2023-04-25T09:57:40.731Z,42.94
2023-04-25T10:00:12.030Z,44.71
2023-04-25T10:02:40.452Z,46.86
2023-04-25T10:05:08.928Z,44.71
2023-04-25T10:07:39.028Z,43.74
2023-04-25T10:10:07.005Z,41.72
2023-04-25T10:12:35.026Z,41.30
2023-04-25T10:15:02.754Z,44.31
2023-04-25T10:17:29.525Z,45.14
2023-04-25T10:19:56.527Z,46.78
2023-04-25T10:22:42.226Z,43.14
2023-04-25T10:25:10.011Z,44.31
2023-04-25T10:27:37.153Z,46.20
2023-04-25T10:30:14.005Z,45.04
2023-04-25T10:32:42.599Z,43.35
2023-04-25T10:35:36.223Z,41.82
2023-04-25T10:38:14.922Z,41.12
2023-04-25T10:40:41.498Z,40.94
2023-04-25T10:43:33.037Z,36.64
2023-04-25T10:46:17.447Z,33.99
2023-04-25T10:48:49.387Z,34.82
2023-04-25T10:51:54.408Z,35.75
2023-04-25T10:54:24.048Z,38.61
2023-04-25T10:56:51.812Z,42.00
2023-04-25T10:59:19.947Z,43.66
2023-04-25T11:01:48.158Z,45.96
2023-04-25T11:04:26.202Z,47.45
2023-04-25T11:07:04.538Z,43.34
2023-04-25T11:09:37.310Z,43.47
2023-04-25T11:12:04.995Z,37.93
2023-04-25T11:14:33.546Z,38.63
2023-04-25T11:17:04.869Z,36.78
2023-04-25T11:19:34.429Z,36.71
2023-04-25T11:22:04.585Z,35.97
2023-04-25T11:24:35.722Z,39.51
2023-04-25T11:27:04.052Z,43.27
2023-04-25T11:29:35.037Z,43.39
2023-04-25T11:32:04.970Z,43.79
2023-04-25T11:34:35.136Z,42.32
2023-04-25T11:37:05.195Z,39.68
2023-04-25T11:39:34.634Z,39.23
2023-04-25T11:42:08.133Z,36.40
2023-04-25T11:44:36.784Z,34.48
2023-04-25T11:47:03.307Z,35.64
2023-04-25T11:49:36.055Z,33.78
2023-04-25T11:52:02.616Z,31.81
2023-04-25T11:54:31.510Z,32.99
2023-04-25T11:56:58.349Z,32.73
2023-04-25T11:59:26.331Z,34.41
2023-04-25T12:01:53.465Z,36.04
2023-04-25T12:04:25.585Z,35.14
2023-04-25T12:06:56.620Z,34.86
2023-04-25T12:09:35.192Z,33.82
2023-04-25T12:12:05.671Z,32.05
2023-04-25T12:14:36.591Z,32.46
2023-04-25T12:17:09.010Z,31.27
2023-04-25T12:19:37.881Z,33.94
2023-04-25T12:22:05.013Z,32.22
2023-04-25T12:24:38.309Z,30.84
2023-04-25T12:27:09.041Z,28.80
2023-04-25T12:29:48.903Z,31.25
2023-04-25T12:32:17.651Z,28.90
2023-04-25T12:34:44.601Z,30.94
2023-04-25T12:37:11.451Z,31.64
2023-04-25T12:39:38.401Z,28.83
2023-04-25T12:42:06.889Z,28.29
2023-04-25T12:44:36.065Z,29.59
2023-04-25T12:47:04.929Z,28.12
2023-04-25T12:49:40.170Z,28.42
2023-04-25T12:52:06.773Z,29.65
2023-04-25T12:54:36.289Z,31.80
2023-04-25T12:57:06.945Z,30.09
2023-04-25T12:59:37.736Z,32.13
2023-04-25T13:02:07.211Z,33.91
2023-04-25T13:04:37.297Z,32.25
2023-04-25T13:07:07.684Z,32.21
2023-04-25T13:09:37.054Z,31.69
2023-04-25T13:12:08.563Z,29.92
2023-04-25T13:14:38.032Z,29.73
2023-04-25T13:17:07.376Z,30.17
2023-04-25T13:19:37.068Z,28.00
2023-04-25T13:22:06.419Z,29.32
2023-04-25T13:24:35.254Z,29.26
2023-04-25T13:27:04.833Z,28.75
2023-04-25T13:29:31.337Z,27.06
2023-04-25T13:31:57.816Z,28.83
2023-04-25T13:34:24.338Z,32.10
2023-04-25T13:36:50.789Z,34.20
2023-04-25T13:39:17.238Z,35.64
2023-04-25T13:41:43.675Z,38.26
2023-04-25T13:44:11.438Z,33.36
2023-04-25T13:49:12.686Z,34.95
2023-04-25T13:51:40.406Z,32.48
2023-04-25T13:54:07.027Z,32.88
2023-04-25T13:56:35.658Z,34.85
2023-04-25T13:59:05.014Z,34.45
2023-04-25T14:01:35.572Z,32.29
2023-04-25T14:04:05.396Z,32.85
2023-04-25T14:06:34.326Z,32.51
2023-04-25T14:09:04.511Z,33.93
2023-04-25T14:11:31.176Z,34.70
2023-04-25T14:13:57.732Z,32.95
2023-04-25T14:16:24.359Z,32.57
2023-04-25T14:18:51.038Z,32.14
2023-04-25T14:21:17.543Z,32.65
2023-04-25T14:23:44.036Z,33.00
2023-04-25T14:26:13.509Z,31.52
2023-04-25T14:28:40.158Z,30.84
2023-04-25T14:31:06.752Z,29.26
2023-04-25T14:33:36.025Z,28.39
2023-04-25T14:36:04.941Z,29.94
2023-04-25T14:38:31.423Z,29.75
2023-04-25T14:40:57.998Z,30.34
2023-04-25T14:43:24.495Z,29.54
2023-04-25T14:45:51.017Z,32.15
2023-04-25T14:48:20.523Z,28.94
2023-04-25T14:50:47.494Z,32.13
2023-04-25T14:53:14.032Z,32.31
2023-04-25T14:55:42.305Z,32.77
2023-04-25T14:58:08.783Z,32.36
2023-04-25T15:00:38.478Z,30.17
2023-04-25T15:03:08.686Z,30.55
2023-04-25T15:05:38.500Z,32.20
2023-04-25T15:08:07.781Z,33.08
2023-04-25T15:10:37.593Z,34.59
2023-04-25T15:13:07.365Z,35.82
2023-04-25T15:15:35.712Z,35.76
2023-04-25T15:18:02.252Z,34.79
2023-04-25T15:20:29.052Z,36.43
2023-04-25T15:22:56.209Z,35.41
2023-04-25T15:25:22.984Z,35.88
2023-04-25T15:27:52.528Z,35.98
2023-04-25T15:30:22.007Z,35.64
2023-04-25T15:32:48.679Z,34.49
2023-04-25T15:35:16.116Z,34.51
2023-04-25T15:37:43.210Z,35.25
2023-04-25T15:40:15.739Z,35.83
2023-04-25T15:42:47.795Z,35.56
2023-04-25T15:45:15.646Z,34.84
2023-04-25T15:47:42.989Z,35.45
2023-04-25T15:50:10.280Z,37.69
2023-04-25T15:52:37.535Z,38.79
2023-04-25T15:55:07.839Z,38.94
2023-04-25T15:57:37.736Z,37.74
2023-04-25T16:00:14.899Z,37.31
2023-04-25T16:02:42.930Z,37.92
2023-04-25T16:05:11.354Z,38.77
2023-04-25T16:07:39.492Z,39.25
2023-04-25T16:10:06.575Z,39.96
2023-04-25T16:12:35.189Z,40.84
2023-04-25T16:15:01.807Z,41.31
2023-04-25T16:17:30.006Z,41.29
2023-04-25T16:19:57.089Z,40.99
2023-04-25T16:22:23.591Z,41.63
2023-04-25T16:24:50.992Z,42.56
2023-04-25T16:27:17.607Z,43.07
2023-04-25T16:29:44.175Z,42.20
2023-04-25T16:32:11.052Z,43.30
2023-04-25T16:34:37.660Z,43.29
2023-04-25T16:37:08.470Z,43.61
2023-04-25T16:39:37.699Z,44.52
2023-04-25T16:42:07.720Z,44.04
2023-04-25T16:44:39.494Z,43.97
2023-04-25T16:47:06.480Z,43.08
2023-04-25T16:49:37.242Z,43.20
2023-04-25T16:52:05.817Z,42.46
2023-04-25T16:54:32.333Z,43.49
2023-04-25T16:56:59.892Z,43.85
2023-04-25T16:59:26.381Z,44.16
2023-04-25T17:01:52.981Z,43.37
2023-04-25T17:04:19.912Z,43.35
2023-04-25T17:06:47.026Z,43.26
2023-04-25T17:09:13.498Z,42.50
2023-04-25T17:11:39.993Z,43.30
2023-04-25T17:14:09.556Z,44.20
2023-04-25T17:16:37.512Z,45.11
2023-04-25T17:19:09.089Z,44.77
2023-04-25T17:22:14.389Z,45.46
2023-04-25T17:24:41.431Z,45.08
2023-04-25T17:27:08.408Z,45.30
2023-04-25T17:29:35.772Z,45.19
2023-04-25T17:32:06.719Z,45.32
2023-04-25T17:34:35.466Z,45.89
2023-04-25T17:37:01.956Z,46.12
2023-04-25T17:39:28.492Z,46.83
2023-04-25T17:41:55.433Z,46.43
2023-04-25T17:44:21.925Z,46.96
2023-04-25T17:46:48.682Z,48.22
2023-04-25T17:49:15.311Z,47.54
2023-04-25T17:51:41.793Z,47.38
2023-04-25T17:54:09.029Z,47.71
2023-04-25T17:56:39.581Z,48.52
2023-04-25T17:59:14.780Z,48.42
2023-04-25T18:01:45.565Z,49.36
2023-04-25T18:04:14.136Z,49.62
2023-04-25T18:06:41.497Z,50.49
2023-04-25T18:09:16.169Z,50.82
2023-04-25T18:11:46.588Z,50.68
2023-04-25T18:14:25.293Z,50.56
2023-04-25T18:16:55.234Z,51.14
2023-04-25T18:19:23.287Z,51.43
2023-04-25T18:21:53.216Z,52.17
2023-04-25T18:24:26.257Z,52.22
2023-04-25T18:26:54.979Z,52.47
2023-04-25T18:29:32.210Z,53.63
2023-04-25T18:32:00.103Z,53.99
2023-04-25T18:34:27.636Z,54.37
2023-04-25T18:36:55.629Z,55.38
2023-04-25T18:39:26.282Z,56.17
2023-04-25T18:41:58.803Z,56.41
2023-04-25T18:44:28.377Z,57.19
2023-04-25T18:46:55.110Z,57.19
2023-04-25T18:49:21.628Z,58.02
2023-04-25T18:51:49.031Z,58.62
2023-04-25T18:54:15.719Z,58.07
2023-04-25T18:56:42.229Z,58.32
2023-04-25T18:59:08.711Z,57.66
2023-04-25T19:01:36.085Z,57.42
2023-04-25T19:04:05.158Z,57.04
2023-04-25T19:06:33.549Z,57.57
2023-04-25T19:08:59.998Z,57.61
2023-04-25T19:11:26.892Z,58.17
2023-04-25T19:13:56.647Z,57.94
2023-04-25T19:16:23.849Z,58.63
2023-04-25T19:18:52.630Z,59.52
2023-04-25T19:21:19.544Z,59.83
2023-04-25T19:23:46.401Z,59.60
2023-04-25T19:26:13.264Z,60.81
2023-04-25T19:28:44.808Z,60.77
2023-04-25T19:31:11.874Z,61.07
2023-04-25T19:33:41.965Z,60.97
2023-04-25T19:36:11.048Z,61.20
2023-04-25T19:38:40.345Z,61.18
2023-04-25T19:41:08.350Z,61.64
2023-04-25T19:43:34.816Z,62.59
2023-04-25T19:46:01.271Z,62.97
2023-04-25T19:48:27.851Z,63.93
2023-04-25T19:50:54.396Z,63.15
2023-04-25T19:53:20.855Z,64.06
2023-04-25T19:55:47.878Z,64.46
2023-04-25T19:58:14.531Z,64.91
2023-04-25T20:00:40.980Z,65.01
2023-04-25T20:03:10.761Z,65.45
2023-04-25T20:05:40.358Z,65.48
2023-04-25T20:08:11.363Z,66.16
2023-04-25T20:10:41.817Z,66.41
2023-04-25T20:13:08.614Z,66.56
2023-04-25T20:15:35.058Z,66.38
2023-04-25T20:18:01.582Z,66.86
2023-04-25T20:20:28.506Z,66.91
2023-04-25T20:22:55.538Z,67.72
2023-04-25T20:25:22.371Z,68.21
2023-04-25T20:27:48.903Z,67.84
2023-04-25T20:30:15.639Z,67.88
2023-04-25T20:32:42.172Z,69.24
2023-04-25T20:35:10.192Z,69.76
2023-04-25T20:37:39.808Z,70.09
2023-04-25T20:40:09.830Z,70.02
2023-04-25T20:42:36.543Z,70.14
2023-04-25T20:45:08.046Z,69.98
2023-04-25T20:47:34.976Z,70.35
2023-04-25T20:50:03.890Z,69.65
2023-04-25T20:52:31.938Z,69.18
2023-04-25T20:54:58.985Z,70.36
2023-04-25T20:57:25.973Z,70.33
2023-04-25T20:59:52.976Z,70.36
2023-04-25T21:02:22.394Z,69.89
2023-04-25T21:04:48.895Z,69.94
2023-04-25T21:07:15.551Z,70.08
2023-04-25T21:09:45.649Z,69.99
2023-04-25T21:12:12.298Z,70.06
2023-04-25T21:14:40.210Z,70.81
2023-04-25T21:17:06.884Z,70.67
2023-04-25T21:19:33.938Z,71.84
2023-04-25T21:22:01.760Z,72.82
2023-04-25T21:24:28.271Z,73.57
2023-04-25T21:26:54.768Z,73.84
2023-04-25T21:29:21.279Z,74.56
2023-04-25T21:31:48.211Z,75.57
2023-04-25T21:34:14.786Z,75.89
2023-04-25T21:37:07.892Z,75.79
2023-04-25T21:39:34.905Z,75.15
2023-04-25T21:42:01.986Z,74.85
2023-04-25T21:44:30.264Z,74.49
2023-04-25T21:46:57.087Z,75.26
2023-04-25T21:49:29.197Z,75.18
2023-04-25T21:51:56.967Z,76.03
2023-04-25T21:54:23.464Z,76.93
2023-04-25T21:56:49.985Z,77.57
2023-04-25T21:59:16.480Z,77.51
2023-04-25T22:01:43.641Z,76.95
2023-04-25T22:04:11.650Z,77.95
2023-04-25T22:06:38.199Z,78.00
2023-04-25T22:09:05.301Z,77.06
2023-04-25T22:11:32.384Z,77.89
2023-04-25T22:13:58.893Z,78.03
2023-04-25T22:16:25.346Z,78.33
2023-04-25T22:18:53.259Z,79.58
2023-04-25T22:21:20.248Z,80.40
2023-04-25T22:23:46.835Z,81.13
2023-04-25T22:26:16.286Z,81.43
2023-04-25T22:28:43.468Z,81.30
2023-04-25T22:31:10.688Z,81.52
2023-04-25T22:33:37.377Z,81.54
2023-04-25T22:36:04.211Z,81.98
2023-04-25T22:38:30.751Z,81.72
2023-04-25T22:40:57.224Z,81.67
2023-04-25T22:43:24.043Z,81.82
2023-04-25T22:45:50.823Z,80.99
2023-04-25T22:48:17.358Z,79.98
2023-04-25T22:50:43.824Z,78.99
2023-04-25T22:53:10.376Z,79.61
2023-04-25T22:55:36.897Z,79.40
2023-04-25T22:58:04.547Z,80.02
2023-04-25T23:00:31.157Z,80.13
2023-04-25T23:02:58.213Z,79.90
2023-04-25T23:05:24.823Z,80.42
2023-04-25T23:07:51.302Z,82.18
2023-04-25T23:10:18.668Z,82.76
2023-04-25T23:12:45.866Z,83.13
2023-04-25T23:15:16.350Z,83.53
2023-04-25T23:17:43.509Z,83.49
2023-04-25T23:20:11.297Z,82.78
2023-04-25T23:22:38.836Z,82.45
2023-04-25T23:25:07.520Z,83.27
2023-04-25T23:27:34.002Z,83.61
2023-04-25T23:30:00.532Z,83.94
2023-04-25T23:32:27.155Z,83.74
2023-04-25T23:34:53.654Z,82.87
2023-04-25T23:37:20.143Z,82.95
2023-04-25T23:39:52.844Z,82.82
2023-04-25T23:42:20.341Z,82.60
2023-04-25T23:44:46.841Z,83.14
2023-04-25T23:47:14.324Z,82.91
2023-04-25T23:49:41.244Z,83.14
2023-04-25T23:52:07.844Z,82.82
2023-04-25T23:54:34.274Z,82.72
2023-04-25T23:57:00.857Z,82.23
2023-04-25T23:59:28.632Z,81.64
